Dundurn, Canada
Current Conditions -  °F | °C
As of 3:00 AM on Friday 24 Oct 2014 (Local Time) from CYXE Reporting Station
Broken Clouds Broken Clouds  
Wind Chill: 39°   Ceiling: 21000
Heat Index: 45°   Visibility: 15mi
Dew Point: 39°   Wind: 10mph
Humidity: 81%   Direction: 240°WSW
Pressure: 29.56"   Gusts: NA
Location:  51.8°N, 106.5°W
Report Text: CYXE 240900Z 24009KT 15SM SCT100 BKN210 07/04 A2956 RMK AC4CI3 SLP023
Loading
Personal Weather Stations






























Interactive Weather Map
Tropical Storm Tracking
New forecast layout! Learn more

10-Day Weather Forecast

Advertisements
Track Severe Weather on mobile